Time;durP1;ratioP1;P1;durP2;ratioP2;P2;SDS_P1;SDS_P2;PMS_P1;PMS_P2;Temp;Humidity;BMP_temperature;BMP_pressure;BME280_temperature;BME280_humidity;BME280_pressure;Samples;Min_cycle;Max_cycle;Signal;HPM_P1;HPM_P2
2021/10/26 00:01:47;;;;;;;10.98;7.03;;;281.90;1561.60;;;;;;5096498;28;20535;-64
2021/10/26 00:04:12;;;;;;;15.27;7.32;;;281.90;1561.60;;;;;;5096403;28;20042;-64
2021/10/26 00:06:38;;;;;;;12.98;6.57;;;281.90;1587.20;;;;;;5096489;28;20077;-64
2021/10/26 00:09:05;;;;;;;15.23;7.35;;;281.80;1561.60;;;;;;5096446;28;20473;-65
2021/10/26 00:11:32;;;;;;;12.18;7.20;;;281.80;1561.60;;;;;;5096461;28;20024;-65
2021/10/26 00:13:58;;;;;;;15.23;7.10;;;281.80;1561.60;;;;;;5096497;28;20024;-67
2021/10/26 00:16:24;;;;;;;14.40;7.10;;;281.80;1561.60;;;;;;5096422;28;20066;-65
2021/10/26 00:18:50;;;;;;;14.07;7.00;;;281.80;1561.60;;;;;;5096194;28;20024;-66
2021/10/26 00:21:16;;;;;;;14.93;7.28;;;281.80;1561.60;;;;;;5095907;28;20031;-67
2021/10/26 00:23:42;;;;;;;15.18;7.40;;;281.80;1561.60;;;;;;5096081;28;20477;-67
2021/10/26 00:26:08;;;;;;;15.60;7.22;;;281.80;1561.60;;;;;;5096164;28;20031;-67
2021/10/26 00:28:35;;;;;;;11.75;7.20;;;281.80;1561.60;;;;;;5096140;28;20055;-66
2021/10/26 00:31:02;;;;;;;11.38;6.13;;;281.80;1561.60;;;;;;5096429;28;20012;-67
2021/10/26 00:33:29;;;;;;;11.27;5.82;;;281.80;1587.20;;;;;;5095501;28;20027;-67
2021/10/26 00:35:55;;;;;;;12.38;7.15;;;281.80;1587.20;;;;;;5095936;28;20470;-65
2021/10/26 00:38:22;;;;;;;11.85;6.03;;;281.80;1587.20;;;;;;5095980;28;20109;-66
2021/10/26 00:40:48;;;;;;;14.10;6.63;;;281.80;1664.00;;;;;;5095997;28;20016;-64
2021/10/26 00:43:15;;;;;;;12.07;6.50;;;281.80;1587.20;;;;;;5095584;28;20036;-69
2021/10/26 00:45:40;;;;;;;9.23;5.70;;;281.80;1612.80;;;;;;5095552;28;20351;-67
2021/10/26 00:48:06;;;;;;;9.68;6.07;;;281.80;1587.20;;;;;;5095556;28;20027;-67
2021/10/26 00:50:32;;;;;;;13.88;6.47;;;281.80;1612.80;;;;;;5095435;28;20395;-66
2021/10/26 00:52:58;;;;;;;9.80;6.32;;;281.80;1587.20;;;;;;5095520;28;20111;-65
2021/10/26 00:55:24;;;;;;;8.43;5.53;;;281.80;1587.20;;;;;;5095354;28;20048;-67
2021/10/26 00:57:51;;;;;;;8.82;5.68;;;281.90;1587.20;;;;;;5095394;28;20028;-66
2021/10/26 01:00:18;;;;;;;10.05;6.18;;;281.90;1561.60;;;;;;5095052;28;20030;-65
2021/10/26 01:02:45;;;;;;;10.38;6.20;;;281.80;1587.20;;;;;;5095975;28;20055;-65
2021/10/26 01:05:12;;;;;;;11.30;6.10;;;281.90;1587.20;;;;;;5095525;28;20034;-67
2021/10/26 01:07:38;;;;;;;9.13;5.93;;;281.90;1587.20;;;;;;5095413;28;20024;-67
2021/10/26 01:10:07;;;;;;;10.95;6.13;;;281.90;1587.20;;;;;;5095401;28;20063;-65
2021/10/26 01:12:35;;;;;;;9.27;5.97;;;281.80;1587.20;;;;;;5095011;28;20024;-65
2021/10/26 01:15:01;;;;;;;11.35;6.88;;;281.90;1587.20;;;;;;5095021;28;20099;-65
2021/10/26 01:17:27;;;;;;;10.85;6.05;;;281.90;1587.20;;;;;;5095280;28;20048;-65
2021/10/26 01:19:55;;;;;;;10.23;5.90;;;281.90;1587.20;;;;;;5095161;28;20050;-65
2021/10/26 01:22:23;;;;;;;11.85;6.53;;;281.90;1561.60;;;;;;5095077;28;20117;-65
2021/10/26 01:24:49;;;;;;;9.32;5.65;;;281.90;1561.60;;;;;;5095163;28;20381;-65
2021/10/26 01:27:16;;;;;;;8.57;6.07;;;281.90;1561.60;;;;;;5094824;28;20035;-65
2021/10/26 01:29:42;;;;;;;7.38;5.45;;;281.90;1561.60;;;;;;5094914;28;20024;-66
2021/10/26 01:32:09;;;;;;;9.57;5.75;;;281.90;1561.60;;;;;;5095052;28;20043;-66
2021/10/26 01:34:36;;;;;;;11.02;6.07;;;281.90;1561.60;;;;;;5093993;28;20016;-66
2021/10/26 01:37:07;;;;;;;7.97;5.50;;;281.90;1561.60;;;;;;5094797;28;20048;-66
2021/10/26 01:39:34;;;;;;;10.88;5.80;;;281.90;1561.60;;;;;;5094965;28;20046;-66
2021/10/26 01:42:01;;;;;;;12.13;6.72;;;281.90;1561.60;;;;;;5094560;28;20081;-66
2021/10/26 01:44:27;;;;;;;10.85;6.40;;;281.80;1561.60;;;;;;5094629;28;20032;-66
2021/10/26 01:46:54;;;;;;;12.07;6.28;;;281.90;1561.60;;;;;;5094721;28;20110;-66
2021/10/26 01:49:21;;;;;;;11.02;6.43;;;281.90;1587.20;;;;;;5094485;28;20052;-66
2021/10/26 01:51:47;;;;;;;10.48;6.18;;;281.90;1561.60;;;;;;5094523;28;20103;-66
2021/10/26 01:54:14;;;;;;;11.50;5.70;;;281.80;1561.60;;;;;;5094421;28;20519;-66
2021/10/26 01:56:41;;;;;;;12.80;6.53;;;281.80;1561.60;;;;;;5094349;28;20040;-68
2021/10/26 01:59:06;;;;;;;11.20;6.43;;;281.80;1561.60;;;;;;5094531;28;20099;-69
2021/10/26 02:01:32;;;;;;;11.07;5.97;;;281.80;1587.20;;;;;;5094211;28;20453;-67
2021/10/26 02:03:58;;;;;;;10.40;6.38;;;281.80;1561.60;;;;;;5094376;28;20040;-68
2021/10/26 02:06:24;;;;;;;13.73;6.35;;;281.80;1587.20;;;;;;5094351;28;20091;-69
2021/10/26 02:08:50;;;;;;;11.43;6.25;;;281.80;1561.60;;;;;;5094205;28;20020;-68
2021/10/26 02:11:15;;;;;;;10.90;6.15;;;281.80;1561.60;;;;;;5094197;28;20021;-68
2021/10/26 02:13:42;;;;;;;12.52;6.45;;;281.80;1561.60;;;;;;5094234;28;20547;-67
2021/10/26 02:16:08;;;;;;;10.77;5.75;;;281.80;1561.60;;;;;;5094000;28;20034;-68
2021/10/26 02:18:34;;;;;;;15.23;6.72;;;281.80;1561.60;;;;;;5093934;28;20024;-67
2021/10/26 02:21:00;;;;;;;11.93;6.47;;;281.80;1561.60;;;;;;5094169;28;20020;-67
2021/10/26 02:23:26;;;;;;;10.15;5.57;;;281.80;1561.60;;;;;;5094048;28;20043;-68
2021/10/26 02:25:52;;;;;;;8.73;5.43;;;281.80;1561.60;;;;;;5094072;28;20099;-68
2021/10/26 02:28:18;;;;;;;9.85;5.93;;;281.80;1536.00;;;;;;5093879;28;20075;-64
2021/10/26 02:30:44;;;;;;;10.98;5.57;;;281.80;1561.60;;;;;;5093972;28;20024;-65
2021/10/26 02:33:11;;;;;;;11.68;5.68;;;281.80;1561.60;;;;;;5093912;28;20465;-65
2021/10/26 02:35:37;;;;;;;17.90;6.07;;;281.80;1561.60;;;;;;5093991;28;20404;-65
2021/10/26 02:38:04;;;;;;;8.10;5.38;;;281.70;1561.60;;;;;;5094028;28;20024;-72
2021/10/26 02:40:30;;;;;;;10.93;5.78;;;281.60;1561.60;;;;;;5093779;28;20035;-72
2021/10/26 02:42:56;;;;;;;11.88;6.75;;;281.70;1561.60;;;;;;5093488;28;20032;-72
2021/10/26 02:45:27;;;;;;;9.07;5.50;;;281.60;1561.60;;;;;;5097656;28;20032;-72
2021/10/26 02:47:54;;;;;;;10.68;5.00;;;281.70;1561.60;;;;;;5100403;28;20031;-72
2021/10/26 02:50:20;;;;;;;14.63;5.72;;;281.70;1561.60;;;;;;5082049;28;20047;-71
2021/10/26 02:52:46;;;;;;;8.30;5.68;;;281.70;1561.60;;;;;;5100760;28;20050;-68
2021/10/26 02:55:13;;;;;;;8.98;5.75;;;281.70;1561.60;;;;;;5100668;28;20031;-67
2021/10/26 02:57:38;;;;;;;14.25;6.18;;;281.70;1536.00;;;;;;5100260;28;20428;-69
2021/10/26 03:00:06;;;;;;;10.07;5.90;;;281.70;1561.60;;;;;;5100174;28;20027;-68
2021/10/26 03:02:32;;;;;;;10.55;5.93;;;281.60;1536.00;;;;;;5081459;28;20127;-69
2021/10/26 03:04:58;;;;;;;10.88;5.57;;;281.60;1561.60;;;;;;5100293;28;20060;-68
2021/10/26 03:07:24;;;;;;;11.98;5.80;;;256.90;1536.00;;;;;;5100512;28;20025;-69
2021/10/26 03:09:50;;;;;;;13.68;6.85;;;256.90;1536.00;;;;;;5100623;28;20035;-69
2021/10/26 03:12:15;;;;;;;10.43;6.55;;;256.90;1536.00;;;;;;5100310;28;20121;-69
2021/10/26 03:14:41;;;;;;;22.33;7.30;;;256.90;1536.00;;;;;;5100301;28;20024;-69
2021/10/26 03:17:07;;;;;;;17.52;7.95;;;256.90;1561.60;;;;;;5100210;28;20062;-68
2021/10/26 03:19:33;;;;;;;48.20;8.82;;;256.90;1561.60;;;;;;5100323;28;20039;-68
2021/10/26 03:21:59;;;;;;;12.07;7.43;;;256.80;1587.20;;;;;;5100351;28;20028;-68
2021/10/26 03:24:24;;;;;;;14.75;6.60;;;256.90;1536.00;;;;;;5100207;28;20043;-67
2021/10/26 03:26:50;;;;;;;14.27;8.90;;;256.80;1510.40;;;;;;5100122;28;20020;-65
2021/10/26 03:29:16;;;;;;;16.02;8.40;;;256.80;1510.40;;;;;;5100004;28;20069;-67
2021/10/26 03:31:42;;;;;;;13.32;8.18;;;256.70;1510.40;;;;;;5100021;28;20543;-68
2021/10/26 03:34:08;;;;;;;16.40;8.48;;;256.70;1510.40;;;;;;5100197;28;20496;-67
2021/10/26 03:36:33;;;;;;;13.13;7.30;;;256.70;1510.40;;;;;;5100191;28;20501;-65
2021/10/26 03:39:00;;;;;;;15.93;8.23;;;256.60;1536.00;;;;;;5082210;28;20491;-65
2021/10/26 03:41:26;;;;;;;17.10;8.18;;;256.60;1536.00;;;;;;5100214;28;20030;-64
2021/10/26 03:43:52;;;;;;;20.42;7.93;;;256.50;1536.00;;;;;;5099824;28;20032;-66
2021/10/26 03:46:18;;;;;;;14.82;8.57;;;256.40;1536.00;;;;;;5100038;28;20485;-67
2021/10/26 03:48:43;;;;;;;14.35;7.72;;;256.40;1536.00;;;;;;5099732;28;20032;-67
2021/10/26 03:51:10;;;;;;;20.85;9.25;;;256.30;1536.00;;;;;;5099646;28;20056;-67
2021/10/26 03:53:36;;;;;;;14.85;8.80;;;256.30;1561.60;;;;;;5099827;28;20027;-67
2021/10/26 03:56:03;;;;;;;16.50;8.60;;;256.20;1536.00;;;;;;5098564;28;20021;-67
2021/10/26 03:58:29;;;;;;;15.45;8.25;;;256.20;1561.60;;;;;;5096372;28;20020;-67
2021/10/26 04:00:55;;;;;;;13.20;7.80;;;256.10;1561.60;;;;;;5096792;28;20458;-62
2021/10/26 04:03:21;;;;;;;15.63;8.20;;;256.00;1561.60;;;;;;5096339;28;20036;-62
2021/10/26 04:05:58;;;;;;;16.02;8.82;;;256.00;1561.60;;;;;;5096781;28;20016;-62
2021/10/26 04:08:29;;;;;;;17.10;8.90;;;256.00;1561.60;;;;;;5096705;28;20028;-63
2021/10/26 04:10:57;;;;;;;15.20;7.80;;;231.30;1587.20;;;;;;5096618;28;20020;-64
2021/10/26 04:13:24;;;;;;;14.93;7.97;;;231.30;1587.20;;;;;;5096492;28;20035;-64
2021/10/26 04:15:51;;;;;;;15.15;7.95;;;231.20;1587.20;;;;;;5096442;28;20024;-63
2021/10/26 04:18:17;;;;;;;15.02;9.00;;;231.30;1587.20;;;;;;5096459;28;20020;-62
2021/10/26 04:20:43;;;;;;;19.00;9.52;;;231.20;1587.20;;;;;;5096174;28;20474;-63
2021/10/26 04:23:09;;;;;;;20.73;9.95;;;231.20;1587.20;;;;;;5096038;28;20103;-64
2021/10/26 04:25:35;;;;;;;19.35;9.98;;;231.20;1587.20;;;;;;5096487;28;20497;-67
2021/10/26 04:28:02;;;;;;;21.58;10.77;;;231.20;1587.20;;;;;;5095695;28;20108;-65
2021/10/26 04:30:29;;;;;;;23.45;10.73;;;231.20;1587.20;;;;;;5096047;28;20493;-65
2021/10/26 04:32:55;;;;;;;27.08;14.07;;;231.10;1612.80;;;;;;5096048;28;20028;-63
2021/10/26 04:35:21;;;;;;;21.63;13.80;;;231.10;1587.20;;;;;;5096302;28;20099;-66
2021/10/26 04:37:46;;;;;;;26.40;14.95;;;231.10;1587.20;;;;;;5095919;28;20055;-65
2021/10/26 04:40:13;;;;;;;26.40;15.65;;;231.00;1612.80;;;;;;5095871;28;20036;-65
2021/10/26 04:42:39;;;;;;;27.65;13.38;;;231.00;1587.20;;;;;;5095714;28;20068;-65
2021/10/26 04:45:06;;;;;;;18.88;12.00;;;231.10;1612.80;;;;;;5096050;28;20027;-64
2021/10/26 04:47:31;;;;;;;22.05;11.18;;;231.00;1612.80;;;;;;5095579;28;20024;-64
2021/10/26 04:49:57;;;;;;;17.48;11.05;;;231.00;1612.80;;;;;;5095632;28;20048;-64
2021/10/26 04:52:23;;;;;;;25.67;11.70;;;230.90;1612.80;;;;;;5095847;28;20024;-64
2021/10/26 04:54:49;;;;;;;25.60;11.13;;;230.90;1612.80;;;;;;5095754;28;20028;-64
2021/10/26 04:57:15;;;;;;;23.63;10.88;;;230.80;1612.80;;;;;;5095465;28;20024;-64
2021/10/26 04:59:41;;;;;;;20.25;10.40;;;230.80;1638.40;;;;;;5095062;28;20550;-64
2021/10/26 05:02:07;;;;;;;23.70;11.13;;;230.80;1638.40;;;;;;5095468;28;20020;-64
2021/10/26 05:04:33;;;;;;;19.40;9.80;;;230.80;1638.40;;;;;;5095564;28;20465;-64
2021/10/26 05:06:59;;;;;;;16.83;9.27;;;230.70;1638.40;;;;;;5095482;28;20377;-64
2021/10/26 05:09:25;;;;;;;15.45;8.95;;;230.70;1638.40;;;;;;5094212;28;20024;-64
2021/10/26 05:11:50;;;;;;;15.20;8.60;;;230.60;1664.00;;;;;;5095307;28;20032;-64
2021/10/26 05:14:16;;;;;;;24.50;11.70;;;230.60;1664.00;;;;;;5095469;28;20031;-64
2021/10/26 05:16:44;;;;;;;45.45;22.17;;;230.60;1664.00;;;;;;5094923;28;20024;-64
2021/10/26 05:19:10;;;;;;;63.05;29.10;;;230.60;1664.00;;;;;;5095043;28;20024;-65
2021/10/26 05:21:36;;;;;;;51.10;23.92;;;230.50;1664.00;;;;;;5094988;28;20111;-64
2021/10/26 05:24:02;;;;;;;35.33;17.73;;;230.50;1664.00;;;;;;5095613;28;20123;-64
2021/10/26 05:26:28;;;;;;;37.53;14.52;;;230.50;1664.00;;;;;;5094904;28;20024;-64
2021/10/26 05:28:54;;;;;;;35.15;14.52;;;230.50;1689.60;;;;;;5094998;28;20415;-64
2021/10/26 05:31:19;;;;;;;29.08;12.57;;;230.50;1664.00;;;;;;5094697;28;20021;-64
2021/10/26 05:33:46;;;;;;;36.60;12.00;;;230.50;1664.00;;;;;;5095026;28;20028;-65
2021/10/26 05:36:13;;;;;;;37.88;18.73;;;230.50;1664.00;;;;;;5094873;28;20032;-64
2021/10/26 05:38:39;;;;;;;53.38;25.67;;;230.50;1664.00;;;;;;5094761;28;20470;-66
2021/10/26 05:41:05;;;;;;;62.28;27.80;;;230.50;1689.60;;;;;;5094798;28;20103;-67
2021/10/26 05:43:31;;;;;;;53.33;25.58;;;230.50;1689.60;;;;;;5094592;28;20032;-67
2021/10/26 05:45:57;;;;;;;40.75;20.77;;;230.60;1689.60;;;;;;5094830;28;20024;-66
2021/10/26 05:48:23;;;;;;;31.08;16.48;;;230.60;1664.00;;;;;;5094296;28;20117;-66
2021/10/26 05:50:49;;;;;;;32.45;16.45;;;230.60;1664.00;;;;;;5094308;28;20394;-66
2021/10/26 05:53:15;;;;;;;29.25;14.88;;;230.60;1664.00;;;;;;5094758;28;20035;-65
2021/10/26 05:55:44;;;;;;;25.85;13.75;;;230.60;1664.00;;;;;;5094238;28;20074;-67
2021/10/26 05:58:13;;;;;;;22.45;12.18;;;230.70;1689.60;;;;;;5094185;28;20059;-67
2021/10/26 06:00:42;;;;;;;23.27;12.18;;;230.90;1894.40;;;;;;5094046;28;20039;-66
2021/10/26 06:03:08;;;;;;;29.30;13.02;;;230.90;1740.80;;;;;;5094402;28;20040;-65
2021/10/26 06:05:34;;;;;;;21.65;12.65;;;231.00;1689.60;;;;;;5094163;28;20481;-65
2021/10/26 06:08:00;;;;;;;25.95;12.57;;;231.00;1664.00;;;;;;5094123;28;20024;-65
2021/10/26 06:10:27;;;;;;;19.90;11.55;;;231.00;1638.40;;;;;;5094250;28;20020;-65
2021/10/26 06:12:57;;;;;;;15.90;11.15;;;231.00;1638.40;;;;;;5094307;28;20027;-65
2021/10/26 06:15:23;;;;;;;21.67;10.77;;;231.10;1638.40;;;;;;5094263;28;20044;-68
2021/10/26 06:17:49;;;;;;;31.17;11.80;;;231.10;1638.40;;;;;;5075601;28;20032;-65
2021/10/26 06:20:14;;;;;;;25.92;10.88;;;231.20;1638.40;;;;;;5093754;28;20051;-64
2021/10/26 06:22:40;;;;;;;22.33;10.07;;;231.20;1638.40;;;;;;5093680;28;20489;-67
2021/10/26 06:25:06;;;;;;;16.42;10.55;;;231.20;1638.40;;;;;;5094161;28;20103;-65
2021/10/26 06:27:32;;;;;;;19.52;10.45;;;231.30;1638.40;;;;;;5093659;28;20066;-66
2021/10/26 06:30:00;;;;;;;20.40;11.45;;;231.30;1612.80;;;;;;5092353;28;20451;-66
2021/10/26 06:32:27;;;;;;;19.67;10.27;;;231.30;1612.80;;;;;;5093590;28;20051;-64
2021/10/26 06:34:53;;;;;;;20.92;10.60;;;256.00;1612.80;;;;;;5093420;28;20095;-65
2021/10/26 06:37:19;;;;;;;19.40;9.90;;;256.00;1612.80;;;;;;5075121;28;20047;-65
2021/10/26 06:39:45;;;;;;;15.38;9.65;;;256.00;1612.80;;;;;;5093273;28;20464;-66
2021/10/26 06:42:11;;;;;;;20.25;9.75;;;256.00;1612.80;;;;;;5090620;28;20078;-66
2021/10/26 06:44:37;;;;;;;16.08;9.73;;;256.00;1612.80;;;;;;5093238;28;20024;-68
2021/10/26 06:47:03;;;;;;;17.02;9.02;;;256.00;1612.80;;;;;;5092831;28;20031;-67
2021/10/26 06:49:29;;;;;;;15.57;8.95;;;256.10;1612.80;;;;;;5093059;28;20059;-65
2021/10/26 06:51:55;;;;;;;12.23;7.80;;;256.10;1612.80;;;;;;5092791;28;20425;-65
2021/10/26 06:54:21;;;;;;;17.08;8.57;;;256.10;1612.80;;;;;;5092235;28;20474;-64
2021/10/26 06:56:47;;;;;;;15.85;8.55;;;256.10;1612.80;;;;;;5091988;28;20024;-64
2021/10/26 06:59:13;;;;;;;15.23;8.00;;;256.10;1612.80;;;;;;5091911;28;20024;-64
2021/10/26 07:01:38;;;;;;;13.70;8.07;;;256.20;1612.80;;;;;;5091904;28;20042;-64
2021/10/26 07:04:04;;;;;;;15.05;9.38;;;256.20;1612.80;;;;;;5091659;28;20120;-64
2021/10/26 07:06:30;;;;;;;18.83;9.57;;;256.20;1612.80;;;;;;5091928;28;20012;-64
2021/10/26 07:08:57;;;;;;;18.85;9.18;;;256.20;1638.40;;;;;;5092097;28;20028;-64
2021/10/26 07:11:23;;;;;;;15.60;9.32;;;256.20;1638.40;;;;;;5092492;28;20024;-64
2021/10/26 07:13:49;;;;;;;14.60;9.68;;;256.30;1638.40;;;;;;5091720;28;20024;-64
2021/10/26 07:16:15;;;;;;;18.55;10.35;;;256.30;1638.40;;;;;;5092033;28;20094;-64
2021/10/26 07:18:41;;;;;;;22.88;11.30;;;256.40;1664.00;;;;;;5091939;28;20477;-64
2021/10/26 07:21:07;;;;;;;17.92;10.40;;;256.40;1664.00;;;;;;5091494;28;20102;-64
2021/10/26 07:23:34;;;;;;;18.67;10.35;;;256.40;1664.00;;;;;;5091700;28;20478;-65
2021/10/26 07:26:00;;;;;;;21.52;10.77;;;256.40;1664.00;;;;;;5091437;28;20115;-65
2021/10/26 07:28:26;;;;;;;25.65;12.80;;;256.50;1664.00;;;;;;5091960;28;20036;-64
2021/10/26 07:30:52;;;;;;;15.88;10.38;;;256.60;1689.60;;;;;;5091379;28;20028;-66
2021/10/26 07:33:22;;;;;;;16.77;9.27;;;256.60;1689.60;;;;;;5092356;28;20024;-64
2021/10/26 07:35:50;;;;;;;20.95;11.50;;;256.70;1689.60;;;;;;5095130;28;20082;-64
2021/10/26 07:38:40;;;;;;;23.25;11.07;;;256.80;1664.00;;;;;;5095624;28;20019;-65
2021/10/26 07:41:02;;;;;;;23.60;11.65;;;256.90;1664.00;;;;;;5094325;28;20413;-64
2021/10/26 07:43:30;;;;;;;22.15;12.18;;;281.60;1689.60;;;;;;5095434;28;20796;-64
2021/10/26 07:45:59;;;;;;;18.83;10.60;;;281.60;1689.60;;;;;;5095260;28;20024;-64
2021/10/26 07:48:25;;;;;;;17.70;9.75;;;281.70;1689.60;;;;;;5092884;28;20436;-65
2021/10/26 07:50:57;;;;;;;16.65;9.43;;;281.80;1664.00;;;;;;5095152;28;20111;-65
2021/10/26 07:53:23;;;;;;;14.35;8.73;;;281.90;1638.40;;;;;;5095425;28;20042;-64
2021/10/26 07:55:51;;;;;;;22.25;8.65;;;282.00;1638.40;;;;;;5092651;28;20059;-64
2021/10/26 07:58:17;;;;;;;33.47;8.70;;;282.10;1638.40;;;;;;5095000;28;20051;-65
2021/10/26 08:00:43;;;;;;;27.13;8.85;;;282.20;1638.40;;;;;;5095404;28;20044;-64
2021/10/26 08:03:08;;;;;;;24.63;8.38;;;282.30;1664.00;;;;;;5095013;28;20069;-65
2021/10/26 08:05:34;;;;;;;155.65;41.65;;;282.50;1664.00;;;;;;5095087;28;20021;-64
2021/10/26 08:08:00;;;;;;;27.15;10.80;;;307.30;1638.40;;;;;;5094901;28;20024;-67
2021/10/26 08:10:27;;;;;;;45.95;9.57;;;307.40;1638.40;;;;;;5094753;28;20056;-64
2021/10/26 08:12:53;;;;;;;26.67;9.40;;;307.60;1612.80;;;;;;5094347;28;20020;-66
2021/10/26 08:15:18;;;;;;;27.75;8.63;;;307.70;1587.20;;;;;;5095349;28;20073;-65
2021/10/26 08:17:44;;;;;;;21.98;9.50;;;307.80;1587.20;;;;;;5094877;28;20069;-66
2021/10/26 08:20:10;;;;;;;35.95;8.77;;;307.90;1561.60;;;;;;5095163;28;20351;-67
2021/10/26 08:22:39;;;;;;;27.10;8.57;;;308.00;1536.00;;;;;;5078043;28;20039;-65
2021/10/26 08:25:43;;;;;;;18.70;7.78;;;332.80;1561.60;;;;;;5096614;28;20032;-65
2021/10/26 08:28:01;;;;;;;15.73;8.23;;;332.80;1536.00;;;;;;5092625;28;20035;-65
2021/10/26 08:30:39;;;;;;;11.07;7.40;;;332.90;1536.00;;;;;;5096202;28;20031;-65
2021/10/26 08:33:20;;;;;;;21.35;7.55;;;333.00;1510.40;;;;;;5096059;28;20030;-65
2021/10/26 08:35:47;;;;;;;15.57;7.80;;;333.10;1484.80;;;;;;5096244;28;20031;-65
2021/10/26 08:38:13;;;;;;;20.10;9.48;;;333.20;1484.80;;;;;;5095924;28;20086;-65
2021/10/26 08:40:46;;;;;;;16.77;6.95;;;333.30;1484.80;;;;;;5095359;28;20020;-65
2021/10/26 08:43:22;;;;;;;15.75;7.47;;;333.30;1484.80;;;;;;5095351;28;20028;-65
2021/10/26 08:45:48;;;;;;;13.35;7.65;;;333.40;1484.80;;;;;;5095841;28;20028;-65
2021/10/26 08:48:20;;;;;;;36.38;8.98;;;333.50;1459.20;;;;;;5077567;28;20559;-68
2021/10/26 08:50:59;;;;;;;31.80;8.88;;;333.70;1536.00;;;;;;5095356;28;20050;-66
2021/10/26 08:53:26;;;;;;;13.68;7.22;;;358.40;1484.80;;;;;;5095647;28;20044;-65
2021/10/26 08:56:00;;;;;;;18.40;6.80;;;358.60;1484.80;;;;;;5095521;28;20034;-66
2021/10/26 08:58:33;;;;;;;18.57;7.27;;;358.60;1459.20;;;;;;5095589;28;20036;-65
2021/10/26 09:01:04;;;;;;;12.57;7.43;;;358.70;1459.20;;;;;;5095412;28;20035;-65
2021/10/26 09:03:34;;;;;;;22.15;8.50;;;358.80;1433.60;;;;;;5095391;28;20040;-66
2021/10/26 09:06:00;;;;;;;21.17;8.32;;;358.90;1484.80;;;;;;5095569;28;20096;-66
2021/10/26 09:08:27;;;;;;;17.15;7.65;;;359.00;1433.60;;;;;;5094691;28;20397;-66
2021/10/26 09:10:58;;;;;;;17.30;7.82;;;359.00;1408.00;;;;;;5095350;28;20024;-66
2021/10/26 09:19:23;;;;;;;20.52;9.13;;;359.10;1356.80;;;;;;5095362;28;20063;-67
2021/10/26 09:22:15;;;;;;;16.23;8.07;;;359.20;1356.80;;;;;;5095134;28;20408;-66
2021/10/26 09:24:54;;;;;;;16.52;7.15;;;359.30;1331.20;;;;;;5091254;28;20055;-67
2021/10/26 09:27:21;;;;;;;14.95;6.68;;;359.30;1356.80;;;;;;5094753;28;20013;-67
2021/10/26 09:29:49;;;;;;;45.35;7.65;;;384.00;1356.80;;;;;;5095058;28;20032;-68
2021/10/26 09:32:23;;;;;;;17.70;6.32;;;384.10;1382.40;;;;;;5094978;28;20099;-68
2021/10/26 09:34:59;;;;;;;12.93;6.47;;;384.20;1331.20;;;;;;5076782;28;20040;-68
2021/10/26 09:37:26;;;;;;;11.13;6.20;;;384.20;1305.60;;;;;;5094668;28;20028;-68
2021/10/26 09:39:53;;;;;;;17.52;6.07;;;384.30;1331.20;;;;;;5094799;28;20020;-71
2021/10/26 09:42:20;;;;;;;21.35;6.45;;;384.40;1280.00;;;;;;5094579;28;20506;-69
2021/10/26 09:44:52;;;;;;;15.95;6.25;;;384.50;1305.60;;;;;;5094791;28;20039;-68
2021/10/26 09:47:29;;;;;;;33.80;7.03;;;384.50;1305.60;;;;;;5094594;28;20024;-68
2021/10/26 09:50:03;;;;;;;49.60;7.35;;;384.50;1305.60;;;;;;5094248;28;20494;-66
2021/10/26 09:52:36;;;;;;;;;;;384.70;1305.60;;;;;;5094896;28;20130;-68
2021/10/26 09:55:05;;;;;;;27.17;5.93;;;384.70;1305.60;;;;;;5093871;28;19999;-65
2021/10/26 09:57:36;;;;;;;18.30;7.13;;;384.70;1280.00;;;;;;5094622;28;20496;-66
2021/10/26 10:00:06;;;;;;;20.88;6.82;;;384.80;1280.00;;;;;;5094384;28;20016;-65
2021/10/26 10:02:34;;;;;;;21.13;7.10;;;384.80;1280.00;;;;;;5094554;28;20044;-63
2021/10/26 10:05:02;;;;;;;18.40;6.38;;;409.60;1305.60;;;;;;5094513;28;20351;-63
2021/10/26 10:07:30;;;;;;;17.08;6.30;;;409.60;1280.00;;;;;;5094425;28;20021;-62
2021/10/26 10:10:11;;;;;;;29.00;7.97;;;409.60;1254.40;;;;;;5094627;28;20048;-65
2021/10/26 10:12:42;;;;;;;23.00;8.27;;;409.80;1331.20;;;;;;5094178;28;20020;-66
2021/10/26 10:15:09;;;;;;;17.63;7.13;;;409.80;1280.00;;;;;;5094887;28;20059;-66
2021/10/26 10:17:36;;;;;;;11.27;6.25;;;409.90;1280.00;;;;;;5094228;28;20031;-66
2021/10/26 10:20:07;;;;;;;11.25;5.00;;;409.90;1254.40;;;;;;5094203;28;20035;-66
2021/10/26 10:22:34;;;;;;;10.93;4.38;;;409.90;1228.80;;;;;;5094178;28;20016;-66
2021/10/26 10:25:03;;;;;;;21.70;6.13;;;409.90;1228.80;;;;;;5094006;28;20028;-66
2021/10/26 10:27:35;;;;;;;395.70;36.47;;;410.00;1254.40;;;;;;5094054;28;20405;-62
2021/10/26 10:30:07;;;;;;;144.88;17.08;;;410.00;1254.40;;;;;;5093769;28;20039;-63
2021/10/26 10:32:33;;;;;;;57.28;8.20;;;410.10;1228.80;;;;;;5093064;28;20478;-64
2021/10/26 10:35:02;;;;;;;25.67;6.90;;;410.10;1254.40;;;;;;5093748;28;20062;-64
2021/10/26 10:37:31;;;;;;;18.83;6.88;;;410.20;1228.80;;;;;;5094029;28;20024;-65
2021/10/26 10:40:02;;;;;;;18.08;5.88;;;410.20;1228.80;;;;;;5093925;28;20465;-64
2021/10/26 10:42:32;;;;;;;14.30;6.20;;;410.30;1228.80;;;;;;5093599;28;20025;-64
2021/10/26 10:45:23;;;;;;;16.73;5.90;;;410.30;1203.20;;;;;;5093891;28;20031;-64
2021/10/26 10:47:50;;;;;;;13.30;5.97;;;410.30;1203.20;;;;;;5093978;28;20110;-64
2021/10/26 10:50:27;;;;;;;10.73;5.18;;;410.30;1203.20;;;;;;5093591;28;20071;-63
2021/10/26 10:53:16;;;;;;;12.18;5.45;;;410.30;1203.20;;;;;;5093696;28;20048;-65
2021/10/26 10:55:45;;;;;;;27.90;5.85;;;410.30;1203.20;;;;;;5093804;28;20115;-64
2021/10/26 10:58:21;;;;;;;14.13;5.68;;;410.40;1203.20;;;;;;5093508;28;20024;-63
2021/10/26 11:00:47;;;;;;;18.00;5.88;;;410.50;1203.20;;;;;;5093807;28;20031;-63
2021/10/26 11:03:33;;;;;;;18.58;5.28;;;410.50;1203.20;;;;;;5093670;28;20032;-63
2021/10/26 11:06:02;;;;;;;23.48;6.18;;;435.20;1203.20;;;;;;5095047;28;20119;-64
2021/10/26 11:08:47;;;;;;;10.05;4.95;;;435.20;1203.20;;;;;;5097301;28;20020;-63
2021/10/26 11:11:16;;;;;;;13.27;5.78;;;435.20;1177.60;;;;;;5097803;28;20039;-64
2021/10/26 11:13:42;;;;;;;17.00;5.20;;;435.20;1152.00;;;;;;5097424;28;20024;-64
2021/10/26 11:16:12;;;;;;;14.40;5.05;;;435.30;1126.40;;;;;;5097355;28;20070;-63
2021/10/26 11:18:49;;;;;;;13.27;5.22;;;435.30;1152.00;;;;;;5097236;28;20024;-63
2021/10/26 11:21:24;;;;;;;14.95;6.28;;;435.30;1152.00;;;;;;5096916;28;20024;-63
2021/10/26 11:24:01;;;;;;;14.23;6.72;;;435.40;1152.00;;;;;;5095172;28;20059;-63
2021/10/26 11:26:44;;;;;;;12.25;5.22;;;435.40;1152.00;;;;;;5095224;28;20424;-64
2021/10/26 11:29:25;;;;;;;9.52;5.15;;;435.50;1152.00;;;;;;5096765;28;20477;-63
2021/10/26 11:31:55;;;;;;;13.48;5.97;;;435.40;1126.40;;;;;;5095924;28;20107;-63
2021/10/26 11:34:26;;;;;;;13.07;6.18;;;435.40;1126.40;;;;;;5094644;28;20022;-63
2021/10/26 11:37:07;;;;;;;13.98;6.80;;;435.40;1126.40;;;;;;5078476;28;20416;-63
2021/10/26 11:39:37;;;;;;;28.08;14.50;;;435.40;1126.40;;;;;;5096644;28;20012;-63
2021/10/26 11:42:08;;;;;;;21.60;15.10;;;435.40;1100.80;;;;;;5096519;28;20048;-63
2021/10/26 11:44:34;;;;;;;15.35;8.27;;;435.40;1100.80;;;;;;5095274;28;20036;-68
2021/10/26 11:47:01;;;;;;;13.45;6.50;;;435.40;1126.40;;;;;;5097063;28;20417;-63
2021/10/26 11:49:29;;;;;;;12.15;6.05;;;435.50;1126.40;;;;;;5094945;28;20502;-63
2021/10/26 11:52:06;;;;;;;13.90;6.65;;;435.50;1126.40;;;;;;5095398;28;20048;-63
2021/10/26 11:54:38;;;;;;;13.93;6.35;;;435.50;1126.40;;;;;;5092950;28;20073;-64
2021/10/26 11:57:09;;;;;;;20.88;10.35;;;435.50;1100.80;;;;;;5095248;28;20439;-63
2021/10/26 11:59:40;;;;;;;19.42;9.07;;;435.60;1100.80;;;;;;5095277;28;20024;-64
2021/10/26 12:02:14;;;;;;;22.35;11.15;;;435.60;1100.80;;;;;;5095100;28;20012;-63
2021/10/26 12:04:57;;;;;;;16.42;7.97;;;435.60;1100.80;;;;;;5095339;28;20046;-63
2021/10/26 12:07:24;;;;;;;16.60;6.72;;;435.60;1100.80;;;;;;5094471;28;20028;-63
2021/10/26 12:09:53;;;;;;;12.05;6.38;;;435.70;1126.40;;;;;;5092566;28;20024;-63
2021/10/26 12:12:21;;;;;;;17.75;6.43;;;435.70;1100.80;;;;;;5095103;28;20652;-63
2021/10/26 12:14:50;;;;;;;12.38;6.53;;;435.70;1100.80;;;;;;5094928;28;20052;-64
2021/10/26 12:17:23;;;;;;;11.40;6.15;;;435.60;1100.80;;;;;;5094631;28;20441;-63